createdAt,value
2017-02-03T00:00:35.061Z,0
2017-02-03T00:01:15.543Z,0
2017-02-03T00:01:57.566Z,0
2017-02-03T00:02:42.460Z,0
2017-02-03T00:05:26.982Z,0
2017-02-03T00:06:08.882Z,0
2017-02-03T00:06:55.731Z,0
2017-02-03T00:07:38.829Z,0
2017-02-03T00:08:20.045Z,0
2017-02-03T00:09:00.519Z,0
2017-02-03T00:09:48.276Z,0
2017-02-03T00:12:24.663Z,0
2017-02-03T00:13:06.819Z,0
2017-02-03T00:13:49.675Z,0
2017-02-03T00:14:33.026Z,0
2017-02-03T00:15:14.590Z,0
2017-02-03T00:15:58.534Z,0
2017-02-03T00:16:46.616Z,0
2017-02-03T00:17:32.601Z,0
2017-02-03T00:18:13.588Z,0
2017-02-03T00:19:05.535Z,0
2017-02-03T00:21:28.728Z,0
2017-02-03T00:22:10.588Z,0
2017-02-03T00:22:58.612Z,0
2017-02-03T00:23:51.701Z,0
2017-02-03T00:24:40.608Z,0
2017-02-03T00:25:24.617Z,0
2017-02-03T00:26:09.686Z,0
2017-02-03T00:28:56.326Z,0
2017-02-03T00:31:22.445Z,0
2017-02-03T00:32:12.748Z,0
2017-02-03T00:32:59.751Z,0
2017-02-03T00:33:41.932Z,0
2017-02-03T00:34:22.394Z,0
2017-02-03T00:35:07.245Z,0
2017-02-03T00:35:54.349Z,0
2017-02-03T00:36:39.414Z,0
2017-02-03T00:37:33.725Z,0
2017-02-03T00:42:05.537Z,0
2017-02-03T00:42:48.108Z,0
2017-02-03T00:43:32.123Z,0
2017-02-03T00:44:20.103Z,0
2017-02-03T00:45:09.110Z,0
2017-02-03T00:45:52.202Z,0
2017-02-03T00:46:35.392Z,0
2017-02-03T00:47:19.707Z,0
2017-02-03T00:48:01.733Z,0
2017-02-03T00:48:43.798Z,0
2017-02-03T00:51:25.035Z,0
2017-02-03T00:52:08.761Z,0
2017-02-03T00:52:52.821Z,0
2017-02-03T00:53:36.724Z,0
2017-02-03T00:54:35.744Z,0
2017-02-03T00:55:18.717Z,0
2017-02-03T00:56:10.818Z,0
2017-02-03T00:56:52.817Z,0
2017-02-03T01:11:14.326Z,0
2017-02-03T01:12:15.133Z,0
2017-02-03T01:13:12.117Z,0
2017-02-03T01:14:03.113Z,0
2017-02-03T01:15:09.258Z,0
2017-02-03T01:17:25.020Z,0
2017-02-03T01:18:10.972Z,0
2017-02-03T01:18:58.842Z,0
2017-02-03T01:19:56.806Z,0
2017-02-03T01:20:40.914Z,0
2017-02-03T01:21:36.814Z,0
2017-02-03T01:24:11.783Z,0
2017-02-03T01:28:26.155Z,0
2017-02-03T02:05:55.346Z,0
2017-02-03T02:25:36.352Z,0
2017-02-03T02:26:19.283Z,0
2017-02-03T02:27:02.379Z,0
2017-02-03T02:27:49.280Z,0
2017-02-03T02:28:32.390Z,0
2017-02-03T02:29:15.298Z,0
2017-02-03T02:29:57.308Z,0
2017-02-03T02:30:43.291Z,0
2017-02-03T02:33:17.369Z,0
2017-02-03T02:34:02.520Z,0
2017-02-03T02:34:49.527Z,0
2017-02-03T02:35:36.514Z,0
2017-02-03T02:36:20.614Z,0
2017-02-03T02:37:01.743Z,0
2017-02-03T02:37:47.439Z,0
2017-02-03T02:43:15.061Z,0
2017-02-03T02:47:11.230Z,0
2017-02-03T02:47:54.971Z,0
2017-02-03T02:48:46.943Z,0
2017-02-03T02:49:40.968Z,0
2017-02-03T02:50:27.064Z,0
2017-02-03T02:51:13.104Z,0
2017-02-03T03:00:10.251Z,0
2017-02-03T03:02:51.299Z,0
2017-02-03T03:05:18.256Z,0
2017-02-03T03:26:54.303Z,0
2017-02-03T03:29:13.426Z,0
2017-02-03T03:29:57.622Z,0
2017-02-03T03:30:41.654Z,0
2017-02-03T03:31:23.038Z,0
2017-02-03T03:32:04.073Z,0
2017-02-03T03:32:44.561Z,0
2017-02-03T03:33:32.663Z,0
2017-02-03T03:39:39.657Z,0
2017-02-03T03:40:20.428Z,0
2017-02-03T03:41:02.162Z,0
2017-02-03T03:41:43.592Z,0
2017-02-03T03:42:25.589Z,0
2017-02-03T03:43:09.581Z,0
2017-02-03T03:43:55.583Z,0
2017-02-03T03:44:43.649Z,0
2017-02-03T03:45:26.635Z,0
2017-02-03T03:46:07.123Z,0
2017-02-03T03:46:48.186Z,0
2017-02-03T03:47:30.195Z,0
2017-02-03T03:48:14.076Z,0
2017-02-03T03:48:59.137Z,0
2017-02-03T03:49:42.076Z,0
2017-02-03T03:50:24.243Z,0
2017-02-03T03:51:06.592Z,0
2017-02-03T03:51:48.544Z,0
2017-02-03T03:52:31.988Z,0
2017-02-03T03:53:13.234Z,0
2017-02-03T03:53:59.063Z,0
2017-02-03T03:54:45.186Z,0
2017-02-03T03:55:28.091Z,0
2017-02-03T03:56:19.055Z,0
2017-02-03T03:57:03.164Z,0
2017-02-03T03:57:44.375Z,0
2017-02-03T03:58:29.174Z,0
2017-02-03T03:59:12.084Z,0
2017-02-03T04:00:02.171Z,0
2017-02-03T04:00:48.097Z,0
2017-02-03T04:01:38.081Z,0
2017-02-03T04:02:19.230Z,0
2017-02-03T04:03:00.652Z,0
2017-02-03T04:04:00.707Z,0
2017-02-03T04:06:19.103Z,0
2017-02-03T04:08:40.829Z,0
2017-02-03T04:10:58.812Z,0
2017-02-03T04:11:46.133Z,0
2017-02-03T04:12:38.093Z,0
2017-02-03T04:13:20.321Z,0
2017-02-03T04:14:03.254Z,0
2017-02-03T04:14:46.200Z,0
2017-02-03T04:15:30.089Z,0
2017-02-03T04:16:13.095Z,0
2017-02-03T04:16:56.109Z,0
2017-02-03T04:17:43.508Z,0
2017-02-03T04:18:26.680Z,0
2017-02-03T04:19:12.577Z,0
2017-02-03T04:19:55.582Z,0
2017-02-03T04:20:36.923Z,0
2017-02-03T04:21:27.640Z,0
2017-02-03T04:24:11.676Z,0
2017-02-03T04:24:57.691Z,0
2017-02-03T04:25:40.799Z,0
2017-02-03T04:26:23.018Z,0
2017-02-03T04:27:05.669Z,0
2017-02-03T04:27:47.693Z,0
2017-02-03T04:28:31.747Z,0
2017-02-03T04:29:22.728Z,0
2017-02-03T04:30:16.763Z,0
2017-02-03T04:31:08.670Z,0
2017-02-03T04:31:54.068Z,0
2017-02-03T04:32:50.197Z,0
2017-02-03T04:33:42.158Z,0
2017-02-03T04:34:28.197Z,0
2017-02-03T04:35:09.705Z,0
2017-02-03T04:37:27.113Z,0
2017-02-03T04:38:10.852Z,0
2017-02-03T04:38:52.349Z,0
2017-02-03T04:39:38.264Z,0
2017-02-03T04:40:26.549Z,0
2017-02-03T04:41:13.332Z,0
2017-02-03T04:41:56.350Z,0
2017-02-03T04:42:39.288Z,0
2017-02-03T04:43:22.253Z,0
2017-02-03T04:44:07.268Z,0
2017-02-03T04:46:23.191Z,0
2017-02-03T04:47:06.323Z,0
2017-02-03T04:47:47.826Z,0
2017-02-03T04:48:32.001Z,0
2017-02-03T04:49:14.148Z,0
2017-02-03T04:50:11.015Z,0
2017-02-03T04:50:55.842Z,0
2017-02-03T04:56:58.850Z,0
2017-02-03T04:57:40.645Z,0
2017-02-03T04:58:40.357Z,0
2017-02-03T04:59:27.698Z,0
2017-02-03T05:00:09.552Z,0
2017-02-03T05:04:03.076Z,0
2017-02-03T05:06:51.282Z,0
2017-02-03T05:10:46.820Z,0
2017-02-03T05:13:06.331Z,0
2017-02-03T05:13:50.994Z,0
2017-02-03T05:14:35.197Z,0
2017-02-03T05:15:17.433Z,0
2017-02-03T05:16:02.605Z,0
2017-02-03T05:18:30.885Z,0
2017-02-03T05:27:25.546Z,0
2017-02-03T05:36:23.246Z,0
2017-02-03T05:37:12.653Z,0
2017-02-03T05:41:09.701Z,0
2017-02-03T05:41:58.329Z,0
2017-02-03T05:42:46.845Z,0
2017-02-03T05:43:35.610Z,0
2017-02-03T05:44:24.136Z,0
2017-02-03T05:45:12.115Z,0
2017-02-03T05:47:34.100Z,0
2017-02-03T05:49:55.486Z,0
2017-02-03T05:50:44.054Z,0
2017-02-03T05:51:32.409Z,0
2017-02-03T05:52:21.779Z,0
2017-02-03T05:53:10.648Z,0
2017-02-03T05:56:04.156Z,0
2017-02-03T05:56:50.663Z,0
2017-02-03T05:57:38.467Z,0
2017-02-03T06:02:02.465Z,0
2017-02-03T06:04:55.760Z,0
2017-02-03T06:05:44.332Z,0
2017-02-03T06:06:33.477Z,0
2017-02-03T06:07:22.100Z,0
2017-02-03T06:08:10.556Z,0
2017-02-03T06:08:58.963Z,0
2017-02-03T06:09:47.481Z,0
2017-02-03T06:14:02.775Z,0
2017-02-03T06:14:51.351Z,0
2017-02-03T06:15:39.738Z,0
2017-02-03T06:19:46.149Z,0
2017-02-03T06:22:25.652Z,0
2017-02-03T06:23:11.175Z,0
2017-02-03T06:23:59.537Z,0
2017-02-03T06:24:48.240Z,0
2017-02-03T06:27:39.390Z,0
2017-02-03T06:28:27.905Z,0
2017-02-03T06:29:16.620Z,0
2017-02-03T06:33:13.957Z,0
2017-02-03T06:34:03.211Z,0
2017-02-03T06:38:46.477Z,0
2017-02-03T06:39:34.810Z,0
2017-02-03T06:40:17.659Z,0
2017-02-03T06:40:58.193Z,0
2017-02-03T06:41:38.947Z,0
2017-02-03T06:42:19.396Z,0
2017-02-03T06:42:59.912Z,0
2017-02-03T06:43:40.480Z,0
2017-02-03T06:46:27.607Z,0
2017-02-03T06:47:12.340Z,0
2017-02-03T06:48:01.075Z,0
2017-02-03T06:48:46.072Z,0
2017-02-03T06:49:29.603Z,0
2017-02-03T06:50:28.771Z,0
2017-02-03T06:51:12.147Z,0
2017-02-03T06:51:52.628Z,0
2017-02-03T06:52:33.184Z,0
2017-02-03T06:53:13.703Z,0
2017-02-03T06:53:58.651Z,0
2017-02-03T06:54:45.540Z,0
2017-02-03T06:59:31.939Z,0
2017-02-03T07:00:19.691Z,0
2017-02-03T07:01:07.771Z,0
2017-02-03T07:04:59.084Z,0
2017-02-03T07:12:45.860Z,5
2017-02-03T07:15:30.517Z,5
2017-02-03T07:16:15.318Z,5
2017-02-03T07:16:56.010Z,5
2017-02-03T07:17:41.728Z,5
2017-02-03T07:18:28.776Z,5
2017-02-03T07:19:15.755Z,5
2017-02-03T07:19:58.072Z,5
2017-02-03T07:20:43.766Z,10
2017-02-03T07:21:27.722Z,10
2017-02-03T07:22:09.053Z,10
2017-02-03T07:22:49.552Z,10
2017-02-03T07:23:40.837Z,10
2017-02-03T07:24:24.731Z,10
2017-02-03T07:25:09.094Z,10
2017-02-03T07:25:50.572Z,10
2017-02-03T07:26:31.955Z,10
2017-02-03T07:27:18.749Z,10
2017-02-03T07:27:59.276Z,10
2017-02-03T07:28:42.313Z,10
2017-02-03T07:29:33.338Z,10
2017-02-03T07:32:13.155Z,15
2017-02-03T07:32:58.210Z,15
2017-02-03T07:33:40.646Z,15
2017-02-03T07:34:31.191Z,15
2017-02-03T07:37:18.569Z,20
2017-02-03T07:40:08.034Z,25
2017-02-03T07:42:37.517Z,25
2017-02-03T07:43:24.374Z,25
2017-02-03T07:44:12.418Z,30
2017-02-03T07:44:58.489Z,30
2017-02-03T07:45:39.993Z,30
2017-02-03T07:46:23.967Z,30
2017-02-03T07:47:10.000Z,30
2017-02-03T07:47:51.886Z,30
2017-02-03T07:48:33.333Z,30
2017-02-03T07:49:18.404Z,30
2017-02-03T07:50:04.382Z,30
2017-02-03T07:50:45.480Z,30
2017-02-03T07:51:27.393Z,30
2017-02-03T07:52:10.416Z,30
2017-02-03T07:52:55.379Z,30
2017-02-03T07:53:36.864Z,30
2017-02-03T07:54:18.333Z,30
2017-02-03T07:55:07.490Z,30
2017-02-03T07:55:51.495Z,30
2017-02-03T07:56:33.598Z,30
2017-02-03T07:57:16.432Z,30
2017-02-03T07:58:07.518Z,30
2017-02-03T07:58:50.485Z,30
2017-02-03T07:59:34.560Z,30
2017-02-03T08:00:18.626Z,30
2017-02-03T08:00:59.175Z,30
2017-02-03T08:01:39.766Z,30
2017-02-03T08:02:20.957Z,35
2017-02-03T08:03:04.903Z,35
2017-02-03T08:03:47.881Z,35
2017-02-03T08:04:32.896Z,30
2017-02-03T08:05:15.203Z,30
2017-02-03T08:05:56.305Z,30
2017-02-03T08:06:39.468Z,30
2017-02-03T08:07:21.429Z,35
2017-02-03T08:08:03.553Z,30
2017-02-03T08:08:58.445Z,35
2017-02-03T08:09:40.873Z,35
2017-02-03T08:10:30.921Z,35
2017-02-03T08:11:12.915Z,35
2017-02-03T08:11:56.408Z,35
2017-02-03T08:12:41.795Z,35
2017-02-03T08:13:24.633Z,40
2017-02-03T08:14:08.923Z,40
2017-02-03T08:18:13.894Z,40
2017-02-03T08:19:01.225Z,40
2017-02-03T08:19:55.919Z,40
2017-02-03T08:20:41.037Z,35
2017-02-03T08:21:22.421Z,35
2017-02-03T08:22:05.540Z,35
2017-02-03T08:22:46.049Z,35
2017-02-03T08:23:26.508Z,35
2017-02-03T08:24:07.226Z,35
2017-02-03T08:24:48.528Z,35
2017-02-03T08:25:29.035Z,35
2017-02-03T08:26:09.580Z,35
2017-02-03T08:26:50.087Z,35
2017-02-03T08:27:30.578Z,30
2017-02-03T08:28:11.046Z,30
2017-02-03T08:28:51.542Z,30
2017-02-03T08:29:32.106Z,30
2017-02-03T08:30:12.605Z,30
2017-02-03T08:30:53.154Z,30
2017-02-03T08:31:33.931Z,30
2017-02-03T08:32:14.586Z,30
2017-02-03T08:32:55.729Z,30
2017-02-03T08:33:36.349Z,30
2017-02-03T08:34:16.837Z,30
2017-02-03T08:34:57.431Z,30
2017-02-03T08:35:38.132Z,30
2017-02-03T08:36:18.785Z,30
2017-02-03T08:36:59.349Z,30
2017-02-03T08:37:41.572Z,35
2017-02-03T08:38:22.247Z,35
2017-02-03T08:39:02.971Z,35
2017-02-03T08:39:43.696Z,35
2017-02-03T08:40:24.246Z,35
2017-02-03T08:41:04.826Z,35
2017-02-03T08:41:45.312Z,35
2017-02-03T08:42:26.823Z,35
2017-02-03T08:43:07.284Z,40
2017-02-03T08:43:47.771Z,40
2017-02-03T08:44:28.249Z,40
2017-02-03T08:45:08.762Z,40
2017-02-03T08:45:49.367Z,40
2017-02-03T08:46:29.933Z,45
2017-02-03T08:47:10.494Z,45
2017-02-03T08:47:51.187Z,45
2017-02-03T08:48:31.681Z,45
2017-02-03T08:49:12.230Z,45
2017-02-03T08:49:52.765Z,45
2017-02-03T08:50:33.244Z,50
2017-02-03T08:51:13.816Z,45
2017-02-03T08:51:54.320Z,45
2017-02-03T08:52:34.825Z,50
2017-02-03T08:53:15.495Z,50
2017-02-03T08:53:58.786Z,55
2017-02-03T08:54:39.327Z,55
2017-02-03T08:55:19.904Z,50
2017-02-03T08:56:00.413Z,55
2017-02-03T08:56:41.000Z,55
2017-02-03T08:57:21.546Z,55
2017-02-03T08:58:02.074Z,55
2017-02-03T08:58:42.619Z,55
2017-02-03T08:59:23.162Z,60
2017-02-03T09:00:03.711Z,55
2017-02-03T09:00:44.223Z,60
2017-02-03T09:01:24.688Z,60
2017-02-03T09:02:05.196Z,55
2017-02-03T09:02:45.757Z,60
2017-02-03T09:03:26.247Z,60
2017-02-03T09:04:06.750Z,55
2017-02-03T09:04:47.389Z,55
2017-02-03T09:05:27.842Z,60
2017-02-03T09:06:08.385Z,65
2017-02-03T09:06:49.608Z,70
2017-02-03T09:07:30.108Z,65
2017-02-03T09:08:10.654Z,65
2017-02-03T09:08:51.163Z,70
2017-02-03T09:09:31.675Z,65
2017-02-03T09:10:12.177Z,70
2017-02-03T09:10:52.743Z,70
2017-02-03T09:11:33.222Z,70
2017-02-03T09:12:13.789Z,70
2017-02-03T09:12:54.398Z,70
2017-02-03T09:13:34.930Z,70
2017-02-03T09:14:15.442Z,75
2017-02-03T09:14:55.906Z,75
2017-02-03T09:15:36.435Z,75
2017-02-03T09:16:16.944Z,80
2017-02-03T09:16:57.511Z,85
2017-02-03T09:17:37.973Z,90
2017-02-03T09:18:18.469Z,85
2017-02-03T09:18:59.033Z,90
2017-02-03T09:19:39.556Z,90
2017-02-03T09:20:20.050Z,100
2017-02-03T09:21:00.555Z,100
2017-02-03T09:21:41.156Z,100
2017-02-03T09:22:21.626Z,95
2017-02-03T09:23:02.161Z,95
2017-02-03T09:23:42.702Z,95
2017-02-03T09:24:23.166Z,100
2017-02-03T09:25:03.715Z,95
2017-02-03T09:25:44.260Z,110
2017-02-03T09:26:24.790Z,110
2017-02-03T09:27:05.423Z,110
2017-02-03T09:27:45.869Z,100
2017-02-03T09:28:26.377Z,105
2017-02-03T09:29:06.941Z,100
2017-02-03T09:29:47.451Z,100
2017-02-03T09:30:27.976Z,100
2017-02-03T09:31:08.528Z,100
2017-02-03T09:31:49.059Z,100
2017-02-03T09:32:29.775Z,100
2017-02-03T09:33:10.363Z,100
2017-02-03T09:33:50.878Z,100
2017-02-03T09:34:31.405Z,110
2017-02-03T09:35:11.933Z,95
2017-02-03T09:35:52.473Z,100
2017-02-03T09:36:33.146Z,95
2017-02-03T09:37:31.513Z,95
2017-02-03T09:38:24.964Z,95
2017-02-03T09:39:16.449Z,90
2017-02-03T09:40:11.742Z,95
2017-02-03T09:41:00.788Z,95
2017-02-03T09:41:51.466Z,95
2017-02-03T09:42:39.865Z,95
2017-02-03T09:43:42.460Z,100
2017-02-03T09:44:32.848Z,105
2017-02-03T09:45:26.685Z,110
2017-02-03T09:46:13.474Z,105
2017-02-03T09:47:04.871Z,105
2017-02-03T09:47:54.674Z,100
2017-02-03T09:48:49.361Z,100
2017-02-03T09:49:30.897Z,100
2017-02-03T09:50:14.039Z,105
2017-02-03T09:51:00.900Z,115
2017-02-03T09:51:42.411Z,120
2017-02-03T09:52:22.895Z,125
2017-02-03T09:53:03.398Z,120
2017-02-03T09:53:43.894Z,125
2017-02-03T09:54:24.422Z,125
2017-02-03T09:55:04.932Z,125
2017-02-03T09:55:45.425Z,130
2017-02-03T09:56:25.906Z,130
2017-02-03T09:57:06.432Z,130
2017-02-03T09:57:46.931Z,135
2017-02-03T09:58:27.441Z,130
2017-02-03T09:59:07.972Z,125
2017-02-03T09:59:48.541Z,125
2017-02-03T10:00:30.023Z,125
2017-02-03T10:01:10.506Z,130
2017-02-03T10:01:50.998Z,135
2017-02-03T10:02:32.364Z,125
2017-02-03T10:03:13.393Z,130
2017-02-03T10:03:54.696Z,135
2017-02-03T10:04:36.397Z,135
2017-02-03T10:05:16.942Z,140
2017-02-03T10:06:02.943Z,140
2017-02-03T10:06:44.073Z,135
2017-02-03T10:07:25.497Z,140
2017-02-03T10:08:05.966Z,135
2017-02-03T10:08:47.539Z,135
2017-02-03T10:09:29.471Z,140
2017-02-03T10:10:11.754Z,140
2017-02-03T10:10:55.896Z,140
2017-02-03T10:11:40.074Z,140
2017-02-03T10:12:20.567Z,140
2017-02-03T10:13:03.902Z,140
2017-02-03T10:13:51.911Z,140
2017-02-03T10:14:33.036Z,135
2017-02-03T10:15:13.541Z,145
2017-02-03T10:16:00.410Z,140
2017-02-03T10:16:41.386Z,145
2017-02-03T10:17:22.703Z,155
2017-02-03T10:18:04.268Z,145
2017-02-03T10:18:47.576Z,145
2017-02-03T10:19:28.118Z,145
2017-02-03T10:20:10.450Z,135
2017-02-03T10:20:50.961Z,130
2017-02-03T10:21:31.464Z,130
2017-02-03T10:22:11.923Z,130
2017-02-03T10:22:52.553Z,130
2017-02-03T10:23:33.883Z,130
2017-02-03T10:24:14.400Z,130
2017-02-03T10:24:54.963Z,135
2017-02-03T10:25:35.462Z,135
2017-02-03T10:26:26.422Z,130
2017-02-03T10:27:05.877Z,125
2017-02-03T10:27:46.389Z,135
2017-02-03T10:28:26.966Z,125
2017-02-03T10:29:07.488Z,120
2017-02-03T10:29:47.992Z,120
2017-02-03T10:30:28.552Z,120
2017-02-03T10:31:09.038Z,120
2017-02-03T10:31:49.510Z,120
2017-02-03T10:32:30.570Z,115
2017-02-03T10:33:11.153Z,110
2017-02-03T10:33:51.702Z,110
2017-02-03T10:34:32.264Z,105
2017-02-03T10:35:12.781Z,100
2017-02-03T10:35:53.274Z,105
2017-02-03T10:36:33.862Z,105
2017-02-03T10:37:14.353Z,105
2017-02-03T10:37:54.875Z,105
2017-02-03T10:38:35.363Z,105
2017-02-03T10:39:15.956Z,105
2017-02-03T10:39:56.477Z,105
2017-02-03T10:40:36.990Z,100
2017-02-03T10:41:17.513Z,100
2017-02-03T10:41:58.019Z,95
2017-02-03T10:42:38.536Z,100
2017-02-03T10:43:19.028Z,105
2017-02-03T10:43:59.555Z,115
2017-02-03T10:44:40.063Z,110
2017-02-03T10:45:22.592Z,110
2017-02-03T10:46:03.092Z,110
2017-02-03T10:46:43.621Z,115
2017-02-03T10:47:24.132Z,115
2017-02-03T10:48:04.667Z,115
2017-02-03T10:48:45.179Z,115
2017-02-03T10:49:25.682Z,110
2017-02-03T10:50:06.235Z,115
2017-02-03T10:50:46.730Z,115
2017-02-03T10:51:27.227Z,120
2017-02-03T10:52:07.829Z,120
2017-02-03T10:52:48.349Z,130
2017-02-03T10:53:28.917Z,130
2017-02-03T10:54:09.450Z,135
2017-02-03T10:54:49.942Z,135
2017-02-03T10:55:30.503Z,135
2017-02-03T10:56:11.043Z,130
2017-02-03T10:56:52.575Z,125
2017-02-03T10:57:33.112Z,125
2017-02-03T10:58:13.638Z,130
2017-02-03T10:58:56.217Z,140
2017-02-03T10:59:36.700Z,135
2017-02-03T11:00:17.235Z,130
2017-02-03T11:00:57.752Z,130
2017-02-03T11:01:38.984Z,130
2017-02-03T11:02:19.494Z,130
2017-02-03T11:02:59.996Z,135
2017-02-03T11:03:40.559Z,130
2017-02-03T11:04:22.079Z,125
2017-02-03T11:05:04.317Z,125
2017-02-03T11:05:45.521Z,125
2017-02-03T11:06:27.899Z,130
2017-02-03T11:07:08.999Z,135
2017-02-03T11:07:50.553Z,140
2017-02-03T11:08:31.076Z,135
2017-02-03T11:09:12.227Z,135
2017-02-03T11:09:52.768Z,135
2017-02-03T11:14:22.672Z,135
2017-02-03T11:15:03.189Z,140
2017-02-03T11:15:43.720Z,140
2017-02-03T11:16:24.175Z,150
2017-02-03T11:17:04.659Z,155
2017-02-03T11:17:45.163Z,150
2017-02-03T11:18:25.637Z,140
2017-02-03T11:19:06.112Z,135
2017-02-03T11:19:46.586Z,135
2017-02-03T11:20:27.105Z,135
2017-02-03T11:21:07.686Z,135
2017-02-03T11:21:48.789Z,140
2017-02-03T11:22:29.627Z,150
2017-02-03T11:23:10.139Z,150
2017-02-03T11:23:50.775Z,150
2017-02-03T11:24:31.373Z,150
2017-02-03T11:25:11.893Z,150
2017-02-03T11:25:52.439Z,150
2017-02-03T11:26:33.892Z,145
2017-02-03T11:27:14.380Z,145
2017-02-03T11:27:54.934Z,150
2017-02-03T11:28:35.455Z,150
2017-02-03T11:29:15.962Z,150
2017-02-03T11:29:56.447Z,155
2017-02-03T11:30:37.621Z,160
2017-02-03T11:31:18.518Z,170
2017-02-03T11:31:59.216Z,185
2017-02-03T11:32:39.752Z,190
2017-02-03T11:33:20.511Z,190
2017-02-03T11:34:01.039Z,195
2017-02-03T11:34:42.125Z,205
2017-02-03T11:35:22.487Z,190
2017-02-03T11:36:03.012Z,180
2017-02-03T11:36:43.526Z,175
2017-02-03T11:38:56.731Z,180
2017-02-03T11:39:37.736Z,190
2017-02-03T11:40:18.308Z,195
2017-02-03T11:40:58.848Z,185
2017-02-03T11:41:39.296Z,185
2017-02-03T11:42:19.811Z,185
2017-02-03T11:43:00.312Z,190
2017-02-03T11:43:40.955Z,190
2017-02-03T11:44:21.494Z,205
2017-02-03T11:45:02.085Z,210
2017-02-03T11:45:42.674Z,215
2017-02-03T11:46:23.171Z,215
2017-02-03T11:47:03.694Z,225
2017-02-03T11:47:44.184Z,230
2017-02-03T11:48:24.715Z,240
2017-02-03T11:49:05.349Z,240
2017-02-03T11:49:45.915Z,250
2017-02-03T11:50:26.406Z,255
2017-02-03T11:51:07.161Z,235
2017-02-03T11:51:47.670Z,230
2017-02-03T11:52:28.169Z,215
2017-02-03T11:53:08.661Z,205
2017-02-03T11:53:49.179Z,205
2017-02-03T11:54:29.634Z,210
2017-02-03T11:55:10.221Z,225
2017-02-03T11:55:50.698Z,235
2017-02-03T11:56:31.225Z,230
2017-02-03T11:57:11.733Z,235
2017-02-03T11:57:52.246Z,230
2017-02-03T11:58:32.812Z,230
2017-02-03T11:59:13.310Z,225
2017-02-03T11:59:53.784Z,240
2017-02-03T12:00:34.309Z,235
2017-02-03T12:01:14.866Z,240
2017-02-03T12:01:55.338Z,235
2017-02-03T12:02:35.918Z,245
2017-02-03T12:03:16.523Z,240
2017-02-03T12:03:57.059Z,245
2017-02-03T12:04:37.605Z,255
2017-02-03T12:05:18.062Z,255
2017-02-03T12:05:58.580Z,250
2017-02-03T12:06:39.094Z,250
2017-02-03T12:07:19.617Z,240
2017-02-03T12:08:00.107Z,230
2017-02-03T12:08:40.628Z,220
2017-02-03T12:09:21.122Z,205
2017-02-03T12:10:01.624Z,205
2017-02-03T12:10:42.151Z,205
2017-02-03T12:11:22.738Z,210
2017-02-03T12:12:03.282Z,215
2017-02-03T12:12:43.805Z,205
2017-02-03T12:13:26.992Z,195
2017-02-03T12:14:07.525Z,185
2017-02-03T12:14:48.016Z,175
2017-02-03T12:15:28.501Z,170
2017-02-03T12:16:09.012Z,175
2017-02-03T12:16:49.508Z,170
2017-02-03T12:17:30.056Z,165
2017-02-03T12:18:10.572Z,165
2017-02-03T12:18:51.065Z,165
2017-02-03T12:19:31.583Z,160
2017-02-03T12:20:12.079Z,160
2017-02-03T12:20:52.565Z,155
2017-02-03T12:21:33.048Z,160
2017-02-03T12:22:13.570Z,165
2017-02-03T12:22:54.068Z,170
2017-02-03T12:23:34.514Z,180
2017-02-03T12:24:15.039Z,190
2017-02-03T12:24:55.514Z,190
2017-02-03T12:25:36.047Z,195
2017-02-03T12:26:16.565Z,200
2017-02-03T12:26:57.097Z,210
2017-02-03T12:27:37.570Z,205
2017-02-03T12:28:18.081Z,200
2017-02-03T12:28:58.561Z,195
2017-02-03T12:29:39.044Z,190
2017-02-03T12:30:19.573Z,200
2017-02-03T12:31:00.049Z,215
2017-02-03T12:31:40.580Z,220
2017-02-03T12:32:21.055Z,220
2017-02-03T12:33:01.583Z,205
2017-02-03T12:33:42.065Z,195
2017-02-03T12:34:22.579Z,190
2017-02-03T12:35:03.100Z,190
2017-02-03T12:35:43.615Z,175
2017-02-03T12:36:24.103Z,165
2017-02-03T12:37:04.582Z,150
2017-02-03T12:37:45.098Z,145
2017-02-03T12:38:25.600Z,150
2017-02-03T12:39:06.092Z,155
2017-02-03T12:39:46.640Z,150
2017-02-03T12:40:27.137Z,145
2017-02-03T12:41:07.610Z,140
2017-02-03T12:41:48.093Z,140
2017-02-03T12:42:28.578Z,135
2017-02-03T12:43:09.112Z,135
2017-02-03T12:43:49.637Z,135
2017-02-03T12:44:30.696Z,135
2017-02-03T12:45:11.202Z,130
2017-02-03T12:45:51.712Z,130
2017-02-03T12:46:32.177Z,135
2017-02-03T12:47:12.689Z,135
2017-02-03T12:47:53.170Z,135
2017-02-03T12:48:33.726Z,130
2017-02-03T12:49:14.302Z,130
2017-02-03T12:49:54.883Z,145
2017-02-03T12:50:35.446Z,155
2017-02-03T12:51:15.991Z,150
2017-02-03T12:51:56.539Z,145
2017-02-03T12:52:37.087Z,140
2017-02-03T12:53:17.570Z,135
2017-02-03T12:53:58.102Z,125
2017-02-03T12:54:38.571Z,125
2017-02-03T12:55:19.069Z,130
2017-02-03T12:55:59.671Z,130
2017-02-03T12:56:40.206Z,130
2017-02-03T12:57:20.693Z,135
2017-02-03T12:58:01.221Z,145
2017-02-03T12:58:41.801Z,155
2017-02-03T12:59:22.353Z,150
2017-02-03T13:00:03.182Z,145
2017-02-03T13:00:43.637Z,140
2017-02-03T13:01:24.180Z,135
2017-02-03T13:02:04.676Z,135
2017-02-03T13:02:45.175Z,140
2017-02-03T13:03:25.871Z,140
2017-02-03T13:04:06.346Z,140
2017-02-03T13:04:46.925Z,140
2017-02-03T13:05:28.532Z,140
2017-02-03T13:06:09.046Z,135
2017-02-03T13:06:49.552Z,135
2017-02-03T13:07:30.174Z,140
2017-02-03T13:08:10.739Z,140
2017-02-03T13:08:51.228Z,145
2017-02-03T13:09:31.745Z,145
2017-02-03T13:10:13.102Z,145
2017-02-03T13:10:53.658Z,145
2017-02-03T13:11:34.166Z,150
2017-02-03T13:12:14.680Z,150
2017-02-03T13:12:55.223Z,150
2017-02-03T13:13:35.932Z,155
2017-02-03T13:14:16.429Z,150
2017-02-03T13:14:56.946Z,155
2017-02-03T13:15:37.501Z,160
2017-02-03T13:16:18.018Z,160
2017-02-03T13:16:59.428Z,160
2017-02-03T13:17:39.947Z,160
2017-02-03T13:18:20.497Z,155
2017-02-03T13:19:00.969Z,150
2017-02-03T13:19:41.729Z,140
2017-02-03T13:20:22.204Z,130
2017-02-03T13:21:02.738Z,120
2017-02-03T13:21:44.267Z,115
2017-02-03T13:22:24.813Z,115
2017-02-03T13:23:05.314Z,120
2017-02-03T13:23:46.606Z,125
2017-02-03T13:24:27.792Z,125
2017-02-03T13:25:08.312Z,125
2017-02-03T13:25:49.805Z,125
2017-02-03T13:26:32.033Z,120
2017-02-03T13:27:15.181Z,120
2017-02-03T13:28:02.110Z,120
2017-02-03T13:28:45.143Z,115
2017-02-03T13:29:30.640Z,115
2017-02-03T13:30:13.667Z,115
2017-02-03T13:30:54.153Z,110
2017-02-03T13:31:37.093Z,115
2017-02-03T13:32:19.170Z,115
2017-02-03T13:33:01.585Z,105
2017-02-03T13:33:42.918Z,110
2017-02-03T13:34:23.449Z,115
2017-02-03T13:35:03.930Z,115
2017-02-03T13:35:51.078Z,115
2017-02-03T13:36:34.156Z,110
2017-02-03T13:37:17.095Z,110
2017-02-03T13:38:01.107Z,115
2017-02-03T13:38:41.618Z,115
2017-02-03T13:39:22.128Z,115
2017-02-03T13:40:03.263Z,115
2017-02-03T13:40:43.794Z,115
2017-02-03T13:41:24.382Z,115
2017-02-03T13:42:04.903Z,110
2017-02-03T13:42:46.394Z,110
2017-02-03T13:43:28.663Z,105
2017-02-03T13:44:09.209Z,105
2017-02-03T13:44:49.718Z,100
2017-02-03T13:45:30.182Z,100
2017-02-03T13:46:11.725Z,100
2017-02-03T13:46:52.209Z,95
2017-02-03T13:47:32.711Z,90
2017-02-03T13:48:14.094Z,90
2017-02-03T13:48:54.572Z,90
2017-02-03T13:49:35.992Z,100
2017-02-03T13:50:16.508Z,105
2017-02-03T13:50:57.597Z,105
2017-02-03T13:51:38.128Z,100
2017-02-03T13:52:19.279Z,95
2017-02-03T13:53:03.100Z,90
2017-02-03T13:53:45.407Z,85
2017-02-03T13:54:26.501Z,85
2017-02-03T13:55:07.027Z,80
2017-02-03T13:55:50.204Z,85
2017-02-03T13:56:30.692Z,85
2017-02-03T13:57:12.040Z,85
2017-02-03T13:57:52.621Z,85
2017-02-03T13:58:33.809Z,85
2017-02-03T13:59:15.174Z,80
2017-02-03T13:59:56.613Z,80
2017-02-03T14:00:37.174Z,80
2017-02-03T14:01:17.631Z,80
2017-02-03T14:01:58.886Z,75
2017-02-03T14:02:40.293Z,75
2017-02-03T14:03:20.812Z,75
2017-02-03T14:04:02.005Z,80
2017-02-03T14:04:42.487Z,80
2017-02-03T14:05:23.102Z,85
2017-02-03T14:06:03.640Z,85
2017-02-03T14:06:45.277Z,85
2017-02-03T14:07:27.624Z,80
2017-02-03T14:08:10.782Z,85
2017-02-03T14:08:52.893Z,85
2017-02-03T14:09:34.279Z,80
2017-02-03T14:10:18.100Z,80
2017-02-03T14:10:58.641Z,80
2017-02-03T14:11:40.769Z,80
2017-02-03T14:12:22.212Z,75
2017-02-03T14:13:02.700Z,75
2017-02-03T14:13:45.816Z,70
2017-02-03T14:14:26.327Z,70
2017-02-03T14:15:06.852Z,70
2017-02-03T14:15:48.101Z,70
2017-02-03T14:16:29.116Z,70
2017-02-03T14:17:12.126Z,65
2017-02-03T14:17:59.603Z,65
2017-02-03T14:18:41.093Z,65
2017-02-03T14:20:56.247Z,60
2017-02-03T14:21:36.793Z,60